aviador You're here:

OEDR Decoded Metar

DHAHRAN in SAUDI ARABIA
Report Time2017-08-17 13:00:00
UTC Time2017-08-17 13:23:57
Flight Rules mvfr MVFR
Wind060° at 12 kt
W.Decomp.*RWY 34: 2.5 kt HW 11.7 kt RCW
W.Rank060° ranks 16
Current wind is above 060° avg. (8.6)
Visibility5000 m
Phenomena:Haze
Clouds:N/A
Expected CloudBase > 4,400 ft AGL from Temp-Dew spread
CeilingNone
Temp39°C (ISA +24)
Dew Point28°C (54% RH)
Heat Index54.3°C
QNH0998 hPa
Density Alt3,766 ft
Elevation56 ft
Report Wrong Elevation
Raw Report
METAR OEDR 171300Z 06012KT 5000 HZ SKC 39/28 Q0998 NOSIG=

Extra information for OEDR:More info

Metar Taf Metar & Taf Last 4 Metars F.Rules Stats Wind Profile Meteogram Temp Stats Airport Information Weather charts Add Link Nearby VenuesMetar ALERT Operation Metar Decoded Social comments